createdAt,value
2022-09-14T00:01:25.180Z,45.00
2022-09-14T00:04:04.404Z,40.85
2022-09-14T00:06:31.968Z,44.75
2022-09-14T00:09:01.007Z,54.60
2022-09-14T00:11:30.541Z,45.87
2022-09-14T00:13:58.942Z,49.07
2022-09-14T00:16:29.151Z,52.53
2022-09-14T00:19:06.663Z,55.78
2022-09-14T00:21:37.246Z,46.53
2022-09-14T00:24:05.276Z,50.22
2022-09-14T00:26:32.136Z,49.03
2022-09-14T00:29:04.311Z,56.65
2022-09-14T00:31:33.855Z,49.40
2022-09-14T00:34:00.915Z,53.05
2022-09-14T00:36:29.292Z,55.92
2022-09-14T00:38:57.041Z,58.67
2022-09-14T00:41:31.822Z,55.58
2022-09-14T00:44:06.197Z,73.43
2022-09-14T00:46:40.330Z,54.47
2022-09-14T00:49:11.789Z,56.50
2022-09-14T00:51:45.980Z,53.33
2022-09-14T00:54:12.906Z,55.28
2022-09-14T00:56:40.196Z,47.30
2022-09-14T00:59:13.367Z,46.57
2022-09-14T01:01:41.037Z,48.78
2022-09-14T01:04:08.387Z,53.20
2022-09-14T01:07:05.200Z,51.90
2022-09-14T01:09:38.796Z,53.55
2022-09-14T01:12:45.636Z,54.25
2022-09-14T01:15:19.040Z,55.67
2022-09-14T01:17:55.174Z,54.73
2022-09-14T01:20:59.513Z,66.75
2022-09-14T01:23:59.561Z,65.63
2022-09-14T01:26:48.875Z,62.92
2022-09-14T01:29:21.035Z,57.55
2022-09-14T01:32:02.897Z,60.67
2022-09-14T01:34:44.875Z,64.22
2022-09-14T01:37:19.915Z,64.40
2022-09-14T01:39:55.483Z,62.15
2022-09-14T01:42:26.152Z,60.43
2022-09-14T01:44:59.015Z,66.07
2022-09-14T01:47:29.860Z,63.07
2022-09-14T01:50:08.048Z,64.60
2022-09-14T01:52:44.300Z,58.17
2022-09-14T01:55:18.508Z,63.92
2022-09-14T01:57:54.832Z,62.08
2022-09-14T02:00:22.640Z,60.80
2022-09-14T02:02:57.157Z,56.95
2022-09-14T02:05:34.897Z,69.17
2022-09-14T02:08:02.218Z,63.55
2022-09-14T02:10:30.042Z,65.90
2022-09-14T02:12:57.037Z,64.40
2022-09-14T02:15:26.306Z,62.03
2022-09-14T02:17:54.495Z,62.27
2022-09-14T02:20:33.215Z,57.92
2022-09-14T02:23:00.480Z,60.30
2022-09-14T02:25:27.641Z,64.33
2022-09-14T02:27:54.481Z,56.97
2022-09-14T02:30:21.790Z,49.63
2022-09-14T02:33:08.463Z,47.33
2022-09-14T02:35:41.597Z,55.10
2022-09-14T02:38:28.088Z,50.83
2022-09-14T02:41:06.911Z,50.13
2022-09-14T02:44:08.587Z,51.13
2022-09-14T02:46:59.832Z,48.23
2022-09-14T02:49:38.162Z,55.67
2022-09-14T02:52:05.142Z,54.70
2022-09-14T02:54:44.230Z,49.77
2022-09-14T02:57:11.268Z,49.90
2022-09-14T02:59:38.359Z,48.13
2022-09-14T03:02:05.249Z,46.40
2022-09-14T03:04:32.394Z,49.07
2022-09-14T03:06:59.370Z,52.37
2022-09-14T03:09:26.415Z,46.10
2022-09-14T03:11:53.462Z,48.08
2022-09-14T03:14:20.269Z,45.03
2022-09-14T03:16:47.117Z,52.17
2022-09-14T03:19:14.269Z,46.87
2022-09-14T03:21:41.149Z,56.70
2022-09-14T03:24:08.251Z,50.77
2022-09-14T03:26:38.224Z,44.90
2022-09-14T03:29:06.718Z,51.38
2022-09-14T03:31:34.296Z,48.80
2022-09-14T03:34:02.417Z,53.27
2022-09-14T03:36:31.104Z,47.30
2022-09-14T03:39:01.769Z,51.90
2022-09-14T03:41:29.221Z,46.70
2022-09-14T03:43:56.140Z,52.17
2022-09-14T03:46:25.137Z,50.90
2022-09-14T03:48:52.275Z,49.83
2022-09-14T03:51:19.177Z,47.90
2022-09-14T03:53:46.783Z,47.53
2022-09-14T03:56:16.984Z,46.65
2022-09-14T03:58:45.236Z,50.92
2022-09-14T04:01:15.606Z,43.55
2022-09-14T04:03:43.792Z,41.25
2022-09-14T04:06:11.365Z,44.72
2022-09-14T04:08:40.779Z,44.27
2022-09-14T04:11:14.760Z,50.33
2022-09-14T04:13:43.368Z,52.27
2022-09-14T04:16:10.737Z,44.87
2022-09-14T04:18:37.930Z,52.60
2022-09-14T04:21:08.799Z,49.97
2022-09-14T04:23:51.292Z,49.90
2022-09-14T04:26:26.685Z,47.87
2022-09-14T04:28:55.011Z,44.53
2022-09-14T04:31:22.516Z,43.35
2022-09-14T04:33:50.747Z,45.95
2022-09-14T04:36:20.236Z,42.13
2022-09-14T04:38:47.406Z,44.37
2022-09-14T04:41:17.501Z,44.78
2022-09-14T04:43:45.658Z,45.90
2022-09-14T04:46:18.375Z,46.42
2022-09-14T04:48:45.765Z,47.90
2022-09-14T04:51:18.795Z,44.47
2022-09-14T04:53:48.177Z,41.93
2022-09-14T04:56:16.408Z,46.40
2022-09-14T04:58:51.598Z,44.17
2022-09-14T05:01:24.335Z,39.73
2022-09-14T05:03:52.325Z,32.83
2022-09-14T05:06:21.923Z,37.97
2022-09-14T05:08:50.162Z,37.87
2022-09-14T05:11:19.469Z,40.40
2022-09-14T05:13:49.958Z,41.30
2022-09-14T05:16:20.172Z,37.37
2022-09-14T05:18:47.635Z,35.40
2022-09-14T05:21:17.200Z,31.93
2022-09-14T05:23:44.687Z,32.53
2022-09-14T05:26:13.580Z,28.37
2022-09-14T05:28:40.668Z,30.43
2022-09-14T05:31:09.718Z,31.77
2022-09-14T05:33:36.930Z,28.23
2022-09-14T05:36:06.453Z,26.90
2022-09-14T05:38:36.740Z,27.33
2022-09-14T05:41:05.174Z,27.53
2022-09-14T05:43:33.337Z,26.53
2022-09-14T05:46:05.596Z,27.70
2022-09-14T05:48:33.791Z,28.80
2022-09-14T05:51:02.605Z,25.23
2022-09-14T05:53:30.158Z,27.67
2022-09-14T05:56:01.775Z,25.43
2022-09-14T05:58:28.838Z,30.17
2022-09-14T06:00:55.826Z,22.97
2022-09-14T06:03:22.977Z,26.47
2022-09-14T06:05:50.158Z,22.07
2022-09-14T06:08:17.232Z,19.43
2022-09-14T06:10:44.082Z,16.08
2022-09-14T06:13:10.978Z,18.55
2022-09-14T06:15:37.988Z,17.02
2022-09-14T06:18:04.892Z,18.75
2022-09-14T06:20:31.693Z,15.57
2022-09-14T06:22:58.859Z,16.27
2022-09-14T06:25:26.065Z,17.13
2022-09-14T06:27:55.098Z,13.15
2022-09-14T06:30:22.208Z,15.00
2022-09-14T06:32:49.069Z,13.77
2022-09-14T06:35:15.960Z,11.65
2022-09-14T06:37:42.949Z,11.85
2022-09-14T06:40:10.623Z,14.38
2022-09-14T06:42:37.759Z,12.40
2022-09-14T06:45:05.922Z,10.45
2022-09-14T06:47:33.392Z,10.88
2022-09-14T06:50:00.334Z,14.25
2022-09-14T06:52:30.503Z,7.05
2022-09-14T06:55:00.343Z,11.40
2022-09-14T06:57:27.172Z,11.30
2022-09-14T06:59:54.260Z,10.18
2022-09-14T07:02:21.099Z,13.50
2022-09-14T07:04:47.997Z,12.60
2022-09-14T07:07:16.398Z,10.55
2022-09-14T07:09:43.304Z,8.48
2022-09-14T07:12:11.670Z,12.05
2022-09-14T07:14:38.890Z,13.43
2022-09-14T07:17:05.819Z,11.02
2022-09-14T07:19:33.031Z,15.13
2022-09-14T07:22:01.141Z,10.45
2022-09-14T07:24:28.031Z,10.57
2022-09-14T07:26:54.796Z,11.23
2022-09-14T07:29:22.057Z,9.88
2022-09-14T07:31:51.743Z,7.10
2022-09-14T07:34:19.072Z,14.18
2022-09-14T07:36:46.559Z,14.63
2022-09-14T07:39:15.985Z,11.07
2022-09-14T07:41:43.554Z,12.55
2022-09-14T07:44:14.702Z,11.57
2022-09-14T07:46:44.242Z,12.70
2022-09-14T07:49:12.372Z,11.65
2022-09-14T07:51:39.278Z,13.27
2022-09-14T07:54:11.232Z,9.00
2022-09-14T07:56:38.577Z,7.75
2022-09-14T08:01:53.314Z,11.30
2022-09-14T08:04:21.175Z,15.85
2022-09-14T08:06:48.045Z,10.80
2022-09-14T08:09:15.081Z,11.25
2022-09-14T08:11:42.273Z,6.20
2022-09-14T08:14:11.518Z,12.30
2022-09-14T08:16:40.427Z,7.65
2022-09-14T08:19:12.654Z,8.52
2022-09-14T08:21:44.183Z,7.50
2022-09-14T08:24:15.561Z,10.38
2022-09-14T08:26:42.646Z,11.23
2022-09-14T08:29:09.456Z,9.57
2022-09-14T08:31:38.821Z,11.00
2022-09-14T08:34:06.911Z,11.23
2022-09-14T08:36:36.115Z,7.65
2022-09-14T08:39:04.191Z,7.05
2022-09-14T08:41:43.772Z,6.88
2022-09-14T08:44:48.879Z,10.25
2022-09-14T08:47:19.242Z,9.77
2022-09-14T08:50:06.355Z,11.07
2022-09-14T08:52:35.503Z,7.32
2022-09-14T08:55:30.197Z,5.97
2022-09-14T08:58:14.574Z,10.10
2022-09-14T09:00:53.947Z,5.80
2022-09-14T09:03:39.726Z,6.93
2022-09-14T09:06:16.169Z,5.47
2022-09-14T09:09:05.517Z,11.95
2022-09-14T09:11:40.969Z,5.85
2022-09-14T09:14:19.306Z,8.10
2022-09-14T09:16:50.579Z,5.70
2022-09-14T09:19:28.450Z,8.77
2022-09-14T09:21:56.067Z,4.53
2022-09-14T09:24:25.978Z,5.10
2022-09-14T09:26:53.139Z,7.22
2022-09-14T09:29:20.341Z,8.60
2022-09-14T09:32:15.113Z,6.47
2022-09-14T09:35:21.608Z,9.43
2022-09-14T09:37:57.079Z,8.27
2022-09-14T09:40:34.195Z,6.38
2022-09-14T09:43:04.230Z,3.08
2022-09-14T09:45:57.473Z,4.10
2022-09-14T09:48:32.509Z,5.15
2022-09-14T09:51:09.314Z,3.25
2022-09-14T09:53:49.068Z,6.10
2022-09-14T09:56:19.925Z,5.00
2022-09-14T09:58:51.566Z,4.15
2022-09-14T10:01:18.560Z,6.78
2022-09-14T10:04:01.664Z,4.15
2022-09-14T10:06:28.879Z,5.00
2022-09-14T10:08:57.595Z,5.25
2022-09-14T10:11:36.570Z,6.95
2022-09-14T10:14:06.379Z,2.78
2022-09-14T10:16:38.048Z,7.95
2022-09-14T10:19:14.097Z,3.72
2022-09-14T10:22:03.500Z,7.10
2022-09-14T10:24:33.670Z,7.68
2022-09-14T10:27:01.042Z,5.78
2022-09-14T10:29:44.446Z,5.68
2022-09-14T10:32:19.102Z,3.47
2022-09-14T10:34:46.363Z,4.60
2022-09-14T10:37:25.592Z,6.03
2022-09-14T10:40:16.786Z,4.63
2022-09-14T10:43:12.129Z,6.20
2022-09-14T10:45:52.930Z,7.13
2022-09-14T10:48:38.523Z,7.60
2022-09-14T10:51:23.433Z,3.65
2022-09-14T10:54:18.216Z,4.70
2022-09-14T10:57:07.074Z,8.93
2022-09-14T10:59:44.130Z,3.42
2022-09-14T11:02:35.628Z,3.80
2022-09-14T11:05:15.349Z,3.67
2022-09-14T11:07:51.199Z,4.45
2022-09-14T11:10:34.437Z,5.70
2022-09-14T11:13:33.587Z,5.45
2022-09-14T11:16:06.710Z,3.88
2022-09-14T11:18:48.535Z,3.67
2022-09-14T11:22:01.186Z,6.45
2022-09-14T11:24:33.698Z,7.00
2022-09-14T11:27:08.660Z,6.65
2022-09-14T11:29:44.266Z,5.10
2022-09-14T11:32:21.470Z,6.88
2022-09-14T11:35:13.901Z,8.25
2022-09-14T11:38:17.020Z,4.10
2022-09-14T11:40:47.153Z,7.68
2022-09-14T11:43:22.398Z,4.70
2022-09-14T11:45:58.543Z,3.38
2022-09-14T11:48:44.496Z,5.65
2022-09-14T11:51:19.313Z,5.03
2022-09-14T11:53:46.890Z,8.00
2022-09-14T11:56:30.683Z,6.88
2022-09-14T11:59:07.177Z,8.23
2022-09-14T12:01:39.152Z,8.27
2022-09-14T12:04:10.993Z,7.30
2022-09-14T12:06:38.098Z,5.28
2022-09-14T12:09:28.015Z,7.18
2022-09-14T12:11:58.759Z,4.68
2022-09-14T12:14:29.511Z,11.18
2022-09-14T12:17:38.477Z,5.63
2022-09-14T12:20:28.315Z,5.95
2022-09-14T12:23:17.682Z,8.57
2022-09-14T12:26:06.224Z,6.43
2022-09-14T12:28:40.484Z,8.68
2022-09-14T12:31:32.871Z,5.22
2022-09-14T12:34:21.059Z,3.15
2022-09-14T12:36:48.012Z,7.03
2022-09-14T12:39:27.157Z,7.93
2022-09-14T12:41:53.898Z,6.88
2022-09-14T12:44:30.309Z,7.50
2022-09-14T12:46:57.183Z,6.55
2022-09-14T12:49:34.724Z,6.63
2022-09-14T12:52:12.644Z,5.80
2022-09-14T12:55:24.537Z,8.63
2022-09-14T12:58:00.842Z,6.72
2022-09-14T13:00:29.896Z,6.88
2022-09-14T13:03:25.822Z,5.78
2022-09-14T13:05:52.967Z,5.60
2022-09-14T13:08:24.099Z,5.22
2022-09-14T13:10:52.612Z,11.85
2022-09-14T13:13:25.713Z,5.40
2022-09-14T13:15:55.935Z,10.27
2022-09-14T13:18:22.954Z,6.93
2022-09-14T13:20:56.315Z,7.05
2022-09-14T13:23:37.598Z,5.93
2022-09-14T13:26:19.399Z,6.13
2022-09-14T13:28:51.135Z,9.55
2022-09-14T13:31:28.510Z,4.85
2022-09-14T13:33:56.400Z,6.82
2022-09-14T13:36:26.789Z,7.35
2022-09-14T13:38:54.539Z,8.02
2022-09-14T13:41:23.093Z,4.88
2022-09-14T13:43:54.546Z,4.97
2022-09-14T13:46:26.854Z,7.97
2022-09-14T13:48:54.824Z,7.53
2022-09-14T13:51:25.589Z,5.82
2022-09-14T13:53:55.504Z,6.28
2022-09-14T13:56:31.799Z,7.63
2022-09-14T13:59:07.561Z,11.18
2022-09-14T14:01:43.065Z,12.50
2022-09-14T14:04:30.484Z,10.18
2022-09-14T14:07:06.914Z,5.82
2022-09-14T14:09:47.529Z,7.07
2022-09-14T14:12:22.125Z,3.70
2022-09-14T14:14:56.795Z,10.40
2022-09-14T14:17:30.606Z,8.68
2022-09-14T14:19:59.854Z,10.68
2022-09-14T14:22:31.862Z,9.05
2022-09-14T14:25:13.363Z,6.95
2022-09-14T14:27:47.309Z,9.70
2022-09-14T14:30:19.768Z,9.68
2022-09-14T14:32:51.069Z,5.18
2022-09-14T14:35:22.320Z,10.02
2022-09-14T14:37:50.779Z,7.95
2022-09-14T14:40:18.747Z,8.55
2022-09-14T14:42:46.705Z,12.43
2022-09-14T14:45:19.173Z,8.95
2022-09-14T14:47:52.713Z,5.75
2022-09-14T14:50:23.208Z,5.45
2022-09-14T14:52:51.728Z,6.78
2022-09-14T14:55:23.172Z,9.95
2022-09-14T14:57:52.680Z,7.68
2022-09-14T15:00:23.414Z,27.38
2022-09-14T15:02:51.141Z,9.60
2022-09-14T15:05:19.385Z,9.50
2022-09-14T15:07:47.840Z,12.05
2022-09-14T15:10:16.519Z,10.25
2022-09-14T15:12:44.298Z,5.63
2022-09-14T15:15:16.518Z,9.13
2022-09-14T15:17:43.783Z,15.07
2022-09-14T15:20:12.459Z,10.43
2022-09-14T15:22:42.311Z,7.60
2022-09-14T15:25:10.951Z,9.40
2022-09-14T15:27:38.215Z,9.45
2022-09-14T15:30:06.875Z,8.10
2022-09-14T15:32:33.883Z,8.20
2022-09-14T15:35:02.684Z,11.23
2022-09-14T15:37:29.618Z,9.32
2022-09-14T15:39:56.429Z,10.00
2022-09-14T15:42:24.385Z,7.22
2022-09-14T15:44:51.453Z,9.98
2022-09-14T15:47:18.342Z,11.93
2022-09-14T15:49:45.438Z,9.25
2022-09-14T15:52:12.565Z,6.93
2022-09-14T15:54:39.543Z,9.80
2022-09-14T15:57:10.288Z,10.07
2022-09-14T15:59:37.643Z,8.18
2022-09-14T16:02:04.598Z,9.95
2022-09-14T16:04:38.843Z,7.53
2022-09-14T16:07:09.967Z,9.32
2022-09-14T16:09:41.312Z,20.48
2022-09-14T16:12:10.826Z,10.75
2022-09-14T16:14:38.331Z,9.23
2022-09-14T16:17:05.761Z,7.28
2022-09-14T16:19:32.740Z,13.50
2022-09-14T16:21:59.509Z,11.75
2022-09-14T16:24:27.646Z,18.38
2022-09-14T16:26:55.344Z,17.65
2022-09-14T16:29:24.258Z,8.18
2022-09-14T16:31:52.029Z,11.10
2022-09-14T16:34:26.182Z,9.32
2022-09-14T16:36:53.286Z,9.18
2022-09-14T16:39:23.408Z,12.27
2022-09-14T16:41:50.911Z,11.15
2022-09-14T16:44:20.305Z,8.13
2022-09-14T16:46:49.202Z,13.13
2022-09-14T16:49:17.609Z,13.70
2022-09-14T16:51:44.746Z,12.43
2022-09-14T16:54:16.227Z,14.10
2022-09-14T16:56:44.341Z,12.55
2022-09-14T16:59:12.306Z,7.10
2022-09-14T17:01:41.607Z,8.95
2022-09-14T17:04:11.264Z,11.65
2022-09-14T17:06:41.034Z,11.02
2022-09-14T17:09:14.052Z,11.32
2022-09-14T17:11:41.932Z,11.90
2022-09-14T17:14:26.991Z,12.45
2022-09-14T17:16:55.043Z,9.82
2022-09-14T17:19:22.223Z,11.68
2022-09-14T17:21:49.600Z,11.90
2022-09-14T17:24:18.842Z,10.73
2022-09-14T17:26:46.599Z,13.02
2022-09-14T17:29:14.220Z,11.45
2022-09-14T17:31:43.010Z,8.93
2022-09-14T17:34:12.349Z,11.38
2022-09-14T17:36:40.131Z,16.38
2022-09-14T17:39:11.632Z,11.80
2022-09-14T17:41:39.946Z,16.33
2022-09-14T17:44:07.827Z,14.43
2022-09-14T17:46:36.586Z,15.30
2022-09-14T17:49:08.597Z,12.85
2022-09-14T17:51:37.226Z,18.00
2022-09-14T17:54:04.573Z,13.25
2022-09-14T17:56:32.069Z,14.30
2022-09-14T17:59:12.176Z,12.90
2022-09-14T18:01:39.648Z,13.80
2022-09-14T18:04:10.421Z,11.97
2022-09-14T18:06:40.213Z,13.73
2022-09-14T18:09:12.082Z,9.50
2022-09-14T18:11:39.317Z,8.80
2022-09-14T18:14:06.415Z,10.75
2022-09-14T18:16:33.761Z,11.77
2022-09-14T18:19:00.816Z,12.17
2022-09-14T18:21:27.746Z,15.97
2022-09-14T18:23:55.425Z,8.00
2022-09-14T18:26:24.227Z,10.43
2022-09-14T18:28:55.918Z,15.77
2022-09-14T18:31:23.595Z,10.27
2022-09-14T18:33:53.810Z,9.20
2022-09-14T18:36:22.431Z,10.47
2022-09-14T18:38:51.405Z,9.02
2022-09-14T18:41:18.996Z,8.73
2022-09-14T18:43:48.884Z,13.47
2022-09-14T18:46:17.606Z,10.37
2022-09-14T18:48:44.882Z,14.10
2022-09-14T18:51:14.248Z,12.33
2022-09-14T18:53:42.119Z,10.70
2022-09-14T18:56:15.080Z,11.70
2022-09-14T18:58:47.414Z,13.77
2022-09-14T19:01:15.136Z,8.90
2022-09-14T19:03:43.562Z,10.07
2022-09-14T19:06:13.917Z,13.90
2022-09-14T19:08:42.949Z,10.73
2022-09-14T19:11:13.983Z,11.27
2022-09-14T19:13:41.617Z,11.00
2022-09-14T19:16:11.667Z,9.20
2022-09-14T19:18:39.636Z,13.67
2022-09-14T19:21:20.586Z,9.97
2022-09-14T19:24:00.392Z,8.00
2022-09-14T19:26:44.765Z,9.87
2022-09-14T19:29:20.149Z,10.47
2022-09-14T19:31:51.768Z,12.47
2022-09-14T19:34:20.198Z,13.13
2022-09-14T19:36:47.613Z,11.77
2022-09-14T19:39:15.301Z,11.23
2022-09-14T19:41:42.127Z,12.40
2022-09-14T19:44:09.089Z,10.40
2022-09-14T19:46:39.423Z,15.37
2022-09-14T19:49:07.765Z,12.07
2022-09-14T19:51:35.712Z,12.80
2022-09-14T19:54:02.848Z,18.37
2022-09-14T19:56:32.111Z,14.10
2022-09-14T19:59:01.152Z,12.83
2022-09-14T20:01:31.831Z,13.38
2022-09-14T20:03:58.992Z,9.40
2022-09-14T20:06:31.940Z,10.48
2022-09-14T20:09:00.605Z,10.00
2022-09-14T20:11:30.136Z,14.50
2022-09-14T20:13:58.881Z,16.83
2022-09-14T20:16:29.243Z,11.10
2022-09-14T20:18:58.361Z,12.82
2022-09-14T20:21:27.151Z,14.23
2022-09-14T20:24:17.074Z,13.73
2022-09-14T20:26:49.916Z,15.90
2022-09-14T20:29:19.950Z,17.23
2022-09-14T20:31:47.562Z,15.03
2022-09-14T20:34:16.357Z,17.55
2022-09-14T20:36:44.487Z,14.73
2022-09-14T20:39:11.502Z,14.27
2022-09-14T20:41:39.153Z,16.63
2022-09-14T20:44:07.057Z,15.03
2022-09-14T20:46:38.642Z,16.17
2022-09-14T20:49:10.228Z,10.50
2022-09-14T20:51:38.453Z,14.73
2022-09-14T20:54:07.814Z,15.57
2022-09-14T20:56:35.691Z,13.47
2022-09-14T20:59:06.046Z,12.00
2022-09-14T21:01:35.325Z,9.20
2022-09-14T21:04:04.942Z,10.27
2022-09-14T21:06:32.086Z,16.20
2022-09-14T21:09:00.930Z,11.00
2022-09-14T21:11:28.507Z,11.87
2022-09-14T21:13:57.442Z,16.77
2022-09-14T21:16:32.996Z,13.40
2022-09-14T21:19:08.989Z,11.73
2022-09-14T21:21:36.067Z,17.63
2022-09-14T21:24:05.597Z,13.20
2022-09-14T21:26:33.961Z,16.37
2022-09-14T21:29:04.980Z,12.63
2022-09-14T21:31:34.231Z,16.13
2022-09-14T21:34:03.243Z,10.80
2022-09-14T21:36:36.815Z,10.07
2022-09-14T21:39:08.654Z,14.27
2022-09-14T21:41:37.735Z,10.50
2022-09-14T21:44:04.949Z,17.07
2022-09-14T21:46:34.366Z,11.80
2022-09-14T21:49:01.255Z,11.73
2022-09-14T21:51:31.438Z,12.33
2022-09-14T21:54:05.210Z,10.30
2022-09-14T21:56:36.724Z,12.03
2022-09-14T21:59:07.671Z,10.17
2022-09-14T22:01:34.977Z,11.83
2022-09-14T22:04:02.765Z,16.07
2022-09-14T22:06:31.953Z,14.37
2022-09-14T22:09:01.011Z,11.40
2022-09-14T22:11:31.614Z,17.40
2022-09-14T22:14:02.435Z,11.53
2022-09-14T22:16:34.013Z,10.30
2022-09-14T22:19:04.299Z,12.53
2022-09-14T22:21:33.644Z,12.90
2022-09-14T22:24:02.959Z,12.03
2022-09-14T22:26:32.074Z,13.33
2022-09-14T22:28:59.552Z,10.90
2022-09-14T22:31:28.384Z,15.60
2022-09-14T22:33:57.036Z,12.20
2022-09-14T22:36:24.342Z,11.30
2022-09-14T22:38:51.534Z,17.60
2022-09-14T22:41:22.380Z,13.33
2022-09-14T22:43:49.652Z,11.37
2022-09-14T22:46:17.133Z,15.57
2022-09-14T22:48:45.104Z,11.00
2022-09-14T22:51:20.497Z,9.00
2022-09-14T22:53:47.792Z,14.40
2022-09-14T22:56:20.548Z,11.03
2022-09-14T22:58:48.710Z,15.57
2022-09-14T23:01:19.161Z,12.67
2022-09-14T23:03:46.449Z,12.20
2022-09-14T23:06:13.713Z,16.03
2022-09-14T23:08:41.392Z,12.63
2022-09-14T23:11:11.272Z,13.90
2022-09-14T23:13:40.510Z,13.87
2022-09-14T23:16:10.617Z,13.10
2022-09-14T23:18:37.525Z,14.80
2022-09-14T23:21:05.219Z,11.67
2022-09-14T23:23:32.693Z,10.60
2022-09-14T23:26:05.134Z,12.33
2022-09-14T23:28:32.827Z,10.50
2022-09-14T23:31:00.207Z,9.87
2022-09-14T23:33:28.801Z,9.40
2022-09-14T23:35:56.241Z,14.10
2022-09-14T23:38:23.560Z,10.83
2022-09-14T23:40:51.030Z,14.37
2022-09-14T23:43:18.945Z,9.80
2022-09-14T23:45:47.251Z,12.07
2022-09-14T23:48:15.135Z,11.20
2022-09-14T23:50:42.974Z,8.47
2022-09-14T23:53:10.334Z,13.37
2022-09-14T23:55:37.133Z,15.07
2022-09-14T23:58:04.223Z,9.87
